sensor_id;sensor_type;location;lat;lon;timestamp;P1;durP1;ratioP1;P2;durP2;ratioP2
69310;SDS011;56430;48.154;16.458;2022-07-09T00:01:41;3.58;;;1.20;;
69310;SDS011;56430;48.154;16.458;2022-07-09T00:04:07;4.72;;;1.40;;
69310;SDS011;56430;48.154;16.458;2022-07-09T00:06:34;9.35;;;1.83;;
69310;SDS011;56430;48.154;16.458;2022-07-09T00:09:01;3.30;;;1.33;;
69310;SDS011;56430;48.154;16.458;2022-07-09T00:11:29;7.00;;;1.83;;
69310;SDS011;56430;48.154;16.458;2022-07-09T00:13:56;3.15;;;1.33;;
69310;SDS011;56430;48.154;16.458;2022-07-09T00:16:23;4.63;;;1.50;;
69310;SDS011;56430;48.154;16.458;2022-07-09T00:18:50;3.72;;;1.45;;
69310;SDS011;56430;48.154;16.458;2022-07-09T00:21:17;4.38;;;1.40;;
69310;SDS011;56430;48.154;16.458;2022-07-09T00:23:44;6.13;;;1.70;;
69310;SDS011;56430;48.154;16.458;2022-07-09T00:26:11;3.08;;;1.17;;
69310;SDS011;56430;48.154;16.458;2022-07-09T00:28:39;4.30;;;1.50;;
69310;SDS011;56430;48.154;16.458;2022-07-09T00:31:06;4.32;;;1.60;;
69310;SDS011;56430;48.154;16.458;2022-07-09T00:33:33;4.00;;;1.60;;
69310;SDS011;56430;48.154;16.458;2022-07-09T00:36:00;5.00;;;1.57;;
69310;SDS011;56430;48.154;16.458;2022-07-09T00:38:26;4.22;;;1.23;;
69310;SDS011;56430;48.154;16.458;2022-07-09T00:40:53;3.58;;;1.50;;
69310;SDS011;56430;48.154;16.458;2022-07-09T00:43:21;5.68;;;1.67;;
69310;SDS011;56430;48.154;16.458;2022-07-09T00:45:50;3.10;;;1.23;;
69310;SDS011;56430;48.154;16.458;2022-07-09T00:48:16;3.77;;;1.23;;
69310;SDS011;56430;48.154;16.458;2022-07-09T00:50:45;4.40;;;1.27;;
69310;SDS011;56430;48.154;16.458;2022-07-09T00:53:12;3.03;;;1.20;;
69310;SDS011;56430;48.154;16.458;2022-07-09T00:55:40;7.93;;;1.30;;
69310;SDS011;56430;48.154;16.458;2022-07-09T00:58:07;3.95;;;1.40;;
69310;SDS011;56430;48.154;16.458;2022-07-09T01:00:34;3.70;;;1.27;;
69310;SDS011;56430;48.154;16.458;2022-07-09T01:03:02;2.85;;;1.40;;
69310;SDS011;56430;48.154;16.458;2022-07-09T01:05:29;4.32;;;1.40;;
69310;SDS011;56430;48.154;16.458;2022-07-09T01:08:02;3.42;;;1.10;;
69310;SDS011;56430;48.154;16.458;2022-07-09T01:10:29;3.20;;;1.17;;
69310;SDS011;56430;48.154;16.458;2022-07-09T01:12:55;4.50;;;1.43;;
69310;SDS011;56430;48.154;16.458;2022-07-09T01:15:22;4.38;;;1.40;;
69310;SDS011;56430;48.154;16.458;2022-07-09T01:17:49;4.55;;;1.30;;
69310;SDS011;56430;48.154;16.458;2022-07-09T01:20:21;4.20;;;1.48;;
69310;SDS011;56430;48.154;16.458;2022-07-09T01:22:48;4.22;;;1.65;;
69310;SDS011;56430;48.154;16.458;2022-07-09T01:25:16;3.23;;;1.17;;
69310;SDS011;56430;48.154;16.458;2022-07-09T01:27:43;4.78;;;1.23;;
69310;SDS011;56430;48.154;16.458;2022-07-09T01:30:10;3.45;;;1.38;;
69310;SDS011;56430;48.154;16.458;2022-07-09T01:32:37;4.30;;;1.25;;
69310;SDS011;56430;48.154;16.458;2022-07-09T01:35:04;2.67;;;1.35;;
69310;SDS011;56430;48.154;16.458;2022-07-09T01:37:33;3.83;;;1.23;;
69310;SDS011;56430;48.154;16.458;2022-07-09T01:39:59;5.90;;;1.30;;
69310;SDS011;56430;48.154;16.458;2022-07-09T01:42:26;4.82;;;1.35;;
69310;SDS011;56430;48.154;16.458;2022-07-09T01:44:53;4.35;;;1.30;;
69310;SDS011;56430;48.154;16.458;2022-07-09T01:47:20;5.43;;;1.20;;
69310;SDS011;56430;48.154;16.458;2022-07-09T01:49:47;5.10;;;1.30;;
69310;SDS011;56430;48.154;16.458;2022-07-09T01:52:13;4.45;;;1.40;;
69310;SDS011;56430;48.154;16.458;2022-07-09T01:54:42;6.78;;;1.25;;
69310;SDS011;56430;48.154;16.458;2022-07-09T01:57:09;3.95;;;1.20;;
69310;SDS011;56430;48.154;16.458;2022-07-09T01:59:35;2.72;;;1.00;;
69310;SDS011;56430;48.154;16.458;2022-07-09T02:02:02;4.27;;;1.13;;
69310;SDS011;56430;48.154;16.458;2022-07-09T02:04:30;3.05;;;1.20;;
69310;SDS011;56430;48.154;16.458;2022-07-09T02:06:57;5.22;;;1.40;;
69310;SDS011;56430;48.154;16.458;2022-07-09T02:09:24;3.75;;;1.17;;
69310;SDS011;56430;48.154;16.458;2022-07-09T02:11:55;4.57;;;1.10;;
69310;SDS011;56430;48.154;16.458;2022-07-09T02:14:22;2.80;;;1.10;;
69310;SDS011;56430;48.154;16.458;2022-07-09T02:16:49;6.22;;;1.20;;
69310;SDS011;56430;48.154;16.458;2022-07-09T02:19:15;3.42;;;0.93;;
69310;SDS011;56430;48.154;16.458;2022-07-09T02:21:42;2.67;;;0.85;;
69310;SDS011;56430;48.154;16.458;2022-07-09T02:24:09;3.33;;;0.80;;
69310;SDS011;56430;48.154;16.458;2022-07-09T02:26:36;3.93;;;1.10;;
69310;SDS011;56430;48.154;16.458;2022-07-09T02:29:04;4.05;;;1.08;;
69310;SDS011;56430;48.154;16.458;2022-07-09T02:31:31;4.63;;;1.45;;
69310;SDS011;56430;48.154;16.458;2022-07-09T02:33:58;5.53;;;1.30;;
69310;SDS011;56430;48.154;16.458;2022-07-09T02:36:25;2.92;;;0.90;;
69310;SDS011;56430;48.154;16.458;2022-07-09T02:38:52;4.17;;;0.87;;
69310;SDS011;56430;48.154;16.458;2022-07-09T02:41:18;4.28;;;1.00;;
69310;SDS011;56430;48.154;16.458;2022-07-09T02:43:45;2.90;;;0.82;;
69310;SDS011;56430;48.154;16.458;2022-07-09T02:46:13;3.17;;;0.98;;
69310;SDS011;56430;48.154;16.458;2022-07-09T02:48:40;2.72;;;1.10;;
69310;SDS011;56430;48.154;16.458;2022-07-09T02:51:07;2.97;;;1.10;;
69310;SDS011;56430;48.154;16.458;2022-07-09T02:53:34;4.50;;;1.20;;
69310;SDS011;56430;48.154;16.458;2022-07-09T02:56:01;4.03;;;1.10;;
69310;SDS011;56430;48.154;16.458;2022-07-09T02:58:28;5.72;;;1.10;;
69310;SDS011;56430;48.154;16.458;2022-07-09T03:00:54;4.97;;;1.10;;
69310;SDS011;56430;48.154;16.458;2022-07-09T03:03:25;2.73;;;0.70;;
69310;SDS011;56430;48.154;16.458;2022-07-09T03:05:52;2.20;;;0.77;;
69310;SDS011;56430;48.154;16.458;2022-07-09T03:08:19;6.15;;;1.23;;
69310;SDS011;56430;48.154;16.458;2022-07-09T03:10:47;2.53;;;0.75;;
69310;SDS011;56430;48.154;16.458;2022-07-09T03:13:14;3.88;;;0.85;;
69310;SDS011;56430;48.154;16.458;2022-07-09T03:15:41;2.63;;;1.00;;
69310;SDS011;56430;48.154;16.458;2022-07-09T03:18:07;2.75;;;0.75;;
69310;SDS011;56430;48.154;16.458;2022-07-09T03:20:36;4.13;;;0.90;;
69310;SDS011;56430;48.154;16.458;2022-07-09T03:23:03;3.50;;;1.02;;
69310;SDS011;56430;48.154;16.458;2022-07-09T03:25:30;3.45;;;0.85;;
69310;SDS011;56430;48.154;16.458;2022-07-09T03:27:56;3.83;;;0.77;;
69310;SDS011;56430;48.154;16.458;2022-07-09T03:30:23;3.13;;;0.90;;
69310;SDS011;56430;48.154;16.458;2022-07-09T03:32:50;3.83;;;1.00;;
69310;SDS011;56430;48.154;16.458;2022-07-09T03:35:17;2.67;;;0.85;;
69310;SDS011;56430;48.154;16.458;2022-07-09T03:37:45;4.57;;;0.73;;
69310;SDS011;56430;48.154;16.458;2022-07-09T03:40:12;3.28;;;0.90;;
69310;SDS011;56430;48.154;16.458;2022-07-09T03:42:39;5.30;;;1.07;;
69310;SDS011;56430;48.154;16.458;2022-07-09T03:45:06;2.95;;;0.80;;
69310;SDS011;56430;48.154;16.458;2022-07-09T03:47:33;4.18;;;0.80;;
69310;SDS011;56430;48.154;16.458;2022-07-09T03:50:00;3.80;;;0.80;;
69310;SDS011;56430;48.154;16.458;2022-07-09T03:52:27;3.60;;;0.88;;
69310;SDS011;56430;48.154;16.458;2022-07-09T03:54:55;4.27;;;1.10;;
69310;SDS011;56430;48.154;16.458;2022-07-09T03:57:22;3.58;;;0.63;;
69310;SDS011;56430;48.154;16.458;2022-07-09T03:59:49;4.00;;;0.70;;
69310;SDS011;56430;48.154;16.458;2022-07-09T04:02:16;2.60;;;0.80;;
69310;SDS011;56430;48.154;16.458;2022-07-09T04:04:42;5.40;;;0.82;;
69310;SDS011;56430;48.154;16.458;2022-07-09T04:07:10;3.20;;;0.73;;
69310;SDS011;56430;48.154;16.458;2022-07-09T04:09:37;6.18;;;0.98;;
69310;SDS011;56430;48.154;16.458;2022-07-09T04:12:05;5.45;;;1.10;;
69310;SDS011;56430;48.154;16.458;2022-07-09T04:14:32;4.38;;;0.93;;
69310;SDS011;56430;48.154;16.458;2022-07-09T04:16:59;3.38;;;0.82;;
69310;SDS011;56430;48.154;16.458;2022-07-09T04:19:26;4.27;;;0.80;;
69310;SDS011;56430;48.154;16.458;2022-07-09T04:21:53;3.90;;;0.90;;
69310;SDS011;56430;48.154;16.458;2022-07-09T04:24:19;5.50;;;0.90;;
69310;SDS011;56430;48.154;16.458;2022-07-09T04:26:46;4.28;;;0.75;;
69310;SDS011;56430;48.154;16.458;2022-07-09T04:29:14;5.22;;;0.90;;
69310;SDS011;56430;48.154;16.458;2022-07-09T04:31:41;5.50;;;1.27;;
69310;SDS011;56430;48.154;16.458;2022-07-09T04:34:08;3.60;;;0.90;;
69310;SDS011;56430;48.154;16.458;2022-07-09T04:36:35;2.40;;;0.70;;
69310;SDS011;56430;48.154;16.458;2022-07-09T04:39:02;3.03;;;1.00;;
69310;SDS011;56430;48.154;16.458;2022-07-09T04:41:29;3.30;;;0.80;;
69310;SDS011;56430;48.154;16.458;2022-07-09T04:43:56;3.65;;;0.82;;
69310;SDS011;56430;48.154;16.458;2022-07-09T04:46:24;2.43;;;0.73;;
69310;SDS011;56430;48.154;16.458;2022-07-09T04:48:52;5.37;;;1.10;;
69310;SDS011;56430;48.154;16.458;2022-07-09T04:51:19;5.93;;;1.33;;
69310;SDS011;56430;48.154;16.458;2022-07-09T04:53:46;3.90;;;0.90;;
69310;SDS011;56430;48.154;16.458;2022-07-09T04:56:13;3.30;;;0.90;;
69310;SDS011;56430;48.154;16.458;2022-07-09T04:58:40;6.47;;;0.80;;
69310;SDS011;56430;48.154;16.458;2022-07-09T05:01:17;4.00;;;0.90;;
69310;SDS011;56430;48.154;16.458;2022-07-09T05:03:45;3.60;;;0.93;;
69310;SDS011;56430;48.154;16.458;2022-07-09T05:06:12;6.50;;;1.10;;
69310;SDS011;56430;48.154;16.458;2022-07-09T05:08:39;1.90;;;0.70;;
69310;SDS011;56430;48.154;16.458;2022-07-09T05:11:06;4.72;;;0.88;;
69310;SDS011;56430;48.154;16.458;2022-07-09T05:13:33;5.33;;;1.00;;
69310;SDS011;56430;48.154;16.458;2022-07-09T05:16:00;2.97;;;1.10;;
69310;SDS011;56430;48.154;16.458;2022-07-09T05:18:27;2.80;;;1.13;;
69310;SDS011;56430;48.154;16.458;2022-07-09T05:20:56;4.95;;;1.10;;
69310;SDS011;56430;48.154;16.458;2022-07-09T05:23:23;4.75;;;0.95;;
69310;SDS011;56430;48.154;16.458;2022-07-09T05:25:49;3.35;;;1.00;;
69310;SDS011;56430;48.154;16.458;2022-07-09T05:28:16;3.33;;;1.20;;
69310;SDS011;56430;48.154;16.458;2022-07-09T05:30:43;4.85;;;0.90;;
69310;SDS011;56430;48.154;16.458;2022-07-09T05:33:10;3.03;;;0.88;;
69310;SDS011;56430;48.154;16.458;2022-07-09T05:35:37;4.03;;;0.95;;
69310;SDS011;56430;48.154;16.458;2022-07-09T05:38:05;4.40;;;1.00;;
69310;SDS011;56430;48.154;16.458;2022-07-09T05:40:32;4.27;;;0.90;;
69310;SDS011;56430;48.154;16.458;2022-07-09T05:42:59;2.77;;;1.10;;
69310;SDS011;56430;48.154;16.458;2022-07-09T05:45:25;2.75;;;0.90;;
69310;SDS011;56430;48.154;16.458;2022-07-09T05:47:52;3.47;;;0.90;;
69310;SDS011;56430;48.154;16.458;2022-07-09T05:50:19;4.57;;;1.08;;
69310;SDS011;56430;48.154;16.458;2022-07-09T05:52:47;5.10;;;0.90;;
69310;SDS011;56430;48.154;16.458;2022-07-09T05:55:15;3.13;;;0.97;;
69310;SDS011;56430;48.154;16.458;2022-07-09T05:57:42;4.63;;;1.00;;
69310;SDS011;56430;48.154;16.458;2022-07-09T06:00:09;3.15;;;0.75;;
69310;SDS011;56430;48.154;16.458;2022-07-09T06:02:36;4.68;;;1.10;;
69310;SDS011;56430;48.154;16.458;2022-07-09T06:05:03;7.20;;;1.38;;
69310;SDS011;56430;48.154;16.458;2022-07-09T06:07:30;4.07;;;0.95;;
69310;SDS011;56430;48.154;16.458;2022-07-09T06:09:57;5.80;;;1.00;;
69310;SDS011;56430;48.154;16.458;2022-07-09T06:12:25;5.40;;;0.90;;
69310;SDS011;56430;48.154;16.458;2022-07-09T06:14:52;2.90;;;1.00;;
69310;SDS011;56430;48.154;16.458;2022-07-09T06:17:19;5.55;;;1.00;;
69310;SDS011;56430;48.154;16.458;2022-07-09T06:19:46;5.38;;;1.10;;
69310;SDS011;56430;48.154;16.458;2022-07-09T06:22:12;3.73;;;0.93;;
69310;SDS011;56430;48.154;16.458;2022-07-09T06:24:39;2.63;;;0.70;;
69310;SDS011;56430;48.154;16.458;2022-07-09T06:27:06;3.20;;;1.05;;
69310;SDS011;56430;48.154;16.458;2022-07-09T06:29:34;6.22;;;1.10;;
69310;SDS011;56430;48.154;16.458;2022-07-09T06:32:01;2.45;;;0.73;;
69310;SDS011;56430;48.154;16.458;2022-07-09T06:34:28;2.88;;;1.05;;
69310;SDS011;56430;48.154;16.458;2022-07-09T06:36:55;4.88;;;0.90;;
69310;SDS011;56430;48.154;16.458;2022-07-09T06:39:22;4.87;;;0.90;;
69310;SDS011;56430;48.154;16.458;2022-07-09T06:42:06;5.13;;;1.00;;
69310;SDS011;56430;48.154;16.458;2022-07-09T06:44:35;9.55;;;1.40;;
69310;SDS011;56430;48.154;16.458;2022-07-09T06:47:02;4.35;;;0.90;;
69310;SDS011;56430;48.154;16.458;2022-07-09T06:49:29;2.85;;;0.80;;
69310;SDS011;56430;48.154;16.458;2022-07-09T06:51:56;4.53;;;1.15;;
69310;SDS011;56430;48.154;16.458;2022-07-09T06:54:23;4.00;;;0.90;;
69310;SDS011;56430;48.154;16.458;2022-07-09T06:56:50;2.78;;;1.10;;
69310;SDS011;56430;48.154;16.458;2022-07-09T06:59:18;3.83;;;0.73;;
69310;SDS011;56430;48.154;16.458;2022-07-09T07:01:48;4.03;;;1.10;;
69310;SDS011;56430;48.154;16.458;2022-07-09T07:04:15;5.20;;;1.10;;
69310;SDS011;56430;48.154;16.458;2022-07-09T07:06:42;4.03;;;1.02;;
69310;SDS011;56430;48.154;16.458;2022-07-09T07:09:10;4.70;;;0.93;;
69310;SDS011;56430;48.154;16.458;2022-07-09T07:11:37;3.88;;;1.02;;
69310;SDS011;56430;48.154;16.458;2022-07-09T07:14:04;3.03;;;0.80;;
69310;SDS011;56430;48.154;16.458;2022-07-09T07:16:31;4.63;;;0.90;;
69310;SDS011;56430;48.154;16.458;2022-07-09T07:18:59;3.77;;;1.00;;
69310;SDS011;56430;48.154;16.458;2022-07-09T07:21:26;4.40;;;1.27;;
69310;SDS011;56430;48.154;16.458;2022-07-09T07:23:53;3.90;;;0.80;;
69310;SDS011;56430;48.154;16.458;2022-07-09T07:26:20;4.25;;;0.80;;
69310;SDS011;56430;48.154;16.458;2022-07-09T07:28:47;5.47;;;0.80;;
69310;SDS011;56430;48.154;16.458;2022-07-09T07:31:14;3.55;;;0.90;;
69310;SDS011;56430;48.154;16.458;2022-07-09T07:33:41;2.53;;;0.90;;
69310;SDS011;56430;48.154;16.458;2022-07-09T07:36:10;4.55;;;0.80;;
69310;SDS011;56430;48.154;16.458;2022-07-09T07:38:36;2.50;;;0.60;;
69310;SDS011;56430;48.154;16.458;2022-07-09T07:41:03;11.88;;;1.20;;
69310;SDS011;56430;48.154;16.458;2022-07-09T07:43:30;4.27;;;0.70;;
69310;SDS011;56430;48.154;16.458;2022-07-09T07:45:57;2.67;;;0.80;;
69310;SDS011;56430;48.154;16.458;2022-07-09T07:48:24;4.43;;;0.90;;
69310;SDS011;56430;48.154;16.458;2022-07-09T07:50:52;3.50;;;0.90;;
69310;SDS011;56430;48.154;16.458;2022-07-09T07:53:21;2.70;;;0.80;;
69310;SDS011;56430;48.154;16.458;2022-07-09T07:55:48;4.30;;;1.00;;
69310;SDS011;56430;48.154;16.458;2022-07-09T07:58:15;2.47;;;0.80;;
69310;SDS011;56430;48.154;16.458;2022-07-09T08:00:41;4.25;;;0.70;;
69310;SDS011;56430;48.154;16.458;2022-07-09T08:03:08;2.47;;;0.82;;
69310;SDS011;56430;48.154;16.458;2022-07-09T08:05:35;2.35;;;0.90;;
69310;SDS011;56430;48.154;16.458;2022-07-09T08:08:02;4.67;;;1.13;;
69310;SDS011;56430;48.154;16.458;2022-07-09T08:10:30;5.13;;;0.80;;
69310;SDS011;56430;48.154;16.458;2022-07-09T08:12:57;3.53;;;0.70;;
69310;SDS011;56430;48.154;16.458;2022-07-09T08:15:24;2.92;;;0.60;;
69310;SDS011;56430;48.154;16.458;2022-07-09T08:17:51;4.15;;;0.82;;
69310;SDS011;56430;48.154;16.458;2022-07-09T08:20:18;3.33;;;0.80;;
69310;SDS011;56430;48.154;16.458;2022-07-09T08:22:45;6.63;;;0.93;;
69310;SDS011;56430;48.154;16.458;2022-07-09T08:25:12;3.30;;;0.80;;
69310;SDS011;56430;48.154;16.458;2022-07-09T08:27:41;4.35;;;1.10;;
69310;SDS011;56430;48.154;16.458;2022-07-09T08:30:08;3.05;;;1.02;;
69310;SDS011;56430;48.154;16.458;2022-07-09T08:32:35;2.27;;;0.70;;
69310;SDS011;56430;48.154;16.458;2022-07-09T08:35:03;4.47;;;1.17;;
69310;SDS011;56430;48.154;16.458;2022-07-09T08:37:29;3.88;;;1.13;;
69310;SDS011;56430;48.154;16.458;2022-07-09T08:39:56;4.60;;;1.05;;
69310;SDS011;56430;48.154;16.458;2022-07-09T08:42:23;3.30;;;1.30;;
69310;SDS011;56430;48.154;16.458;2022-07-09T08:44:51;3.67;;;1.10;;
69310;SDS011;56430;48.154;16.458;2022-07-09T08:47:18;3.33;;;1.08;;
69310;SDS011;56430;48.154;16.458;2022-07-09T08:49:57;3.00;;;0.90;;
69310;SDS011;56430;48.154;16.458;2022-07-09T08:55:29;5.18;;;1.00;;
69310;SDS011;56430;48.154;16.458;2022-07-09T08:57:57;3.50;;;0.77;;
69310;SDS011;56430;48.154;16.458;2022-07-09T09:00:25;5.27;;;1.10;;
69310;SDS011;56430;48.154;16.458;2022-07-09T09:02:52;4.95;;;0.80;;
69310;SDS011;56430;48.154;16.458;2022-07-09T09:05:19;2.70;;;0.95;;
69310;SDS011;56430;48.154;16.458;2022-07-09T09:07:46;3.33;;;1.00;;
69310;SDS011;56430;48.154;16.458;2022-07-09T09:10:20;3.75;;;1.10;;
69310;SDS011;56430;48.154;16.458;2022-07-09T09:12:47;2.28;;;0.80;;
69310;SDS011;56430;48.154;16.458;2022-07-09T09:15:16;6.70;;;1.60;;
69310;SDS011;56430;48.154;16.458;2022-07-09T09:17:45;4.18;;;0.73;;
69310;SDS011;56430;48.154;16.458;2022-07-09T09:20:12;5.32;;;1.20;;
69310;SDS011;56430;48.154;16.458;2022-07-09T09:22:43;3.37;;;0.90;;
69310;SDS011;56430;48.154;16.458;2022-07-09T09:25:14;3.63;;;1.13;;
69310;SDS011;56430;48.154;16.458;2022-07-09T09:27:53;4.18;;;1.13;;
69310;SDS011;56430;48.154;16.458;2022-07-09T09:30:21;5.60;;;1.20;;
69310;SDS011;56430;48.154;16.458;2022-07-09T09:32:55;3.83;;;1.10;;
69310;SDS011;56430;48.154;16.458;2022-07-09T09:35:23;3.40;;;1.25;;
69310;SDS011;56430;48.154;16.458;2022-07-09T09:37:50;3.33;;;1.10;;
69310;SDS011;56430;48.154;16.458;2022-07-09T09:40:17;2.95;;;1.05;;
69310;SDS011;56430;48.154;16.458;2022-07-09T09:42:44;3.95;;;1.13;;
69310;SDS011;56430;48.154;16.458;2022-07-09T09:45:12;3.85;;;1.20;;
69310;SDS011;56430;48.154;16.458;2022-07-09T09:47:39;4.37;;;1.30;;
69310;SDS011;56430;48.154;16.458;2022-07-09T09:50:08;5.47;;;1.30;;
69310;SDS011;56430;48.154;16.458;2022-07-09T09:52:39;3.75;;;1.45;;
69310;SDS011;56430;48.154;16.458;2022-07-09T09:55:06;2.70;;;1.60;;
69310;SDS011;56430;48.154;16.458;2022-07-09T09:57:33;3.88;;;1.85;;
69310;SDS011;56430;48.154;16.458;2022-07-09T10:00:02;3.22;;;1.50;;
69310;SDS011;56430;48.154;16.458;2022-07-09T10:02:29;4.80;;;1.30;;
69310;SDS011;56430;48.154;16.458;2022-07-09T10:04:56;3.80;;;1.35;;
69310;SDS011;56430;48.154;16.458;2022-07-09T10:07:25;2.70;;;1.42;;
69310;SDS011;56430;48.154;16.458;2022-07-09T10:09:52;5.97;;;1.90;;
69310;SDS011;56430;48.154;16.458;2022-07-09T10:12:24;5.43;;;1.90;;
69310;SDS011;56430;48.154;16.458;2022-07-09T10:14:51;6.50;;;1.60;;
69310;SDS011;56430;48.154;16.458;2022-07-09T10:17:18;3.38;;;1.58;;
69310;SDS011;56430;48.154;16.458;2022-07-09T10:19:52;6.50;;;1.83;;
69310;SDS011;56430;48.154;16.458;2022-07-09T10:22:19;3.33;;;1.38;;
69310;SDS011;56430;48.154;16.458;2022-07-09T10:24:49;3.35;;;1.30;;
69310;SDS011;56430;48.154;16.458;2022-07-09T10:27:16;3.10;;;1.50;;
69310;SDS011;56430;48.154;16.458;2022-07-09T10:29:53;3.83;;;1.40;;
69310;SDS011;56430;48.154;16.458;2022-07-09T10:32:21;2.85;;;1.30;;
69310;SDS011;56430;48.154;16.458;2022-07-09T10:34:56;2.75;;;1.00;;
69310;SDS011;56430;48.154;16.458;2022-07-09T10:37:29;3.83;;;1.00;;
69310;SDS011;56430;48.154;16.458;2022-07-09T10:40:03;5.27;;;1.20;;
69310;SDS011;56430;48.154;16.458;2022-07-09T10:42:30;3.90;;;1.20;;
69310;SDS011;56430;48.154;16.458;2022-07-09T10:44:57;4.20;;;1.30;;
69310;SDS011;56430;48.154;16.458;2022-07-09T10:47:24;2.92;;;1.38;;
69310;SDS011;56430;48.154;16.458;2022-07-09T10:49:52;4.65;;;1.30;;
69310;SDS011;56430;48.154;16.458;2022-07-09T10:52:19;4.07;;;1.20;;
69310;SDS011;56430;48.154;16.458;2022-07-09T10:54:46;3.47;;;1.23;;
69310;SDS011;56430;48.154;16.458;2022-07-09T10:57:15;4.63;;;1.25;;
69310;SDS011;56430;48.154;16.458;2022-07-09T10:59:45;3.47;;;1.20;;
69310;SDS011;56430;48.154;16.458;2022-07-09T11:02:17;3.17;;;1.00;;
69310;SDS011;56430;48.154;16.458;2022-07-09T11:04:47;4.70;;;1.17;;
69310;SDS011;56430;48.154;16.458;2022-07-09T11:07:18;9.95;;;1.10;;
69310;SDS011;56430;48.154;16.458;2022-07-09T11:09:45;4.78;;;1.30;;
69310;SDS011;56430;48.154;16.458;2022-07-09T11:12:15;2.63;;;0.98;;
69310;SDS011;56430;48.154;16.458;2022-07-09T11:14:43;2.83;;;0.98;;
69310;SDS011;56430;48.154;16.458;2022-07-09T11:17:13;2.83;;;0.80;;
69310;SDS011;56430;48.154;16.458;2022-07-09T11:19:40;2.63;;;1.00;;
69310;SDS011;56430;48.154;16.458;2022-07-09T11:22:07;2.53;;;1.10;;
69310;SDS011;56430;48.154;16.458;2022-07-09T11:24:34;7.63;;;1.25;;
69310;SDS011;56430;48.154;16.458;2022-07-09T11:27:01;2.07;;;0.90;;
69310;SDS011;56430;48.154;16.458;2022-07-09T11:29:30;2.30;;;0.80;;
69310;SDS011;56430;48.154;16.458;2022-07-09T11:31:57;5.13;;;0.98;;
69310;SDS011;56430;48.154;16.458;2022-07-09T11:34:24;2.78;;;1.08;;
69310;SDS011;56430;48.154;16.458;2022-07-09T11:36:51;2.65;;;0.93;;
69310;SDS011;56430;48.154;16.458;2022-07-09T11:39:21;2.50;;;0.90;;
69310;SDS011;56430;48.154;16.458;2022-07-09T11:41:49;2.88;;;1.00;;
69310;SDS011;56430;48.154;16.458;2022-07-09T11:44:19;2.58;;;1.08;;
69310;SDS011;56430;48.154;16.458;2022-07-09T11:46:56;3.50;;;1.02;;
69310;SDS011;56430;48.154;16.458;2022-07-09T11:49:23;2.85;;;1.08;;
69310;SDS011;56430;48.154;16.458;2022-07-09T11:51:57;4.57;;;0.97;;
69310;SDS011;56430;48.154;16.458;2022-07-09T11:54:25;2.00;;;0.90;;
69310;SDS011;56430;48.154;16.458;2022-07-09T11:56:52;2.47;;;1.00;;
69310;SDS011;56430;48.154;16.458;2022-07-09T11:59:24;3.00;;;1.10;;
69310;SDS011;56430;48.154;16.458;2022-07-09T12:01:53;4.80;;;1.35;;
69310;SDS011;56430;48.154;16.458;2022-07-09T12:04:20;2.60;;;1.15;;
69310;SDS011;56430;48.154;16.458;2022-07-09T12:06:48;4.43;;;1.20;;
69310;SDS011;56430;48.154;16.458;2022-07-09T12:09:15;3.58;;;1.17;;
69310;SDS011;56430;48.154;16.458;2022-07-09T12:11:42;4.18;;;1.20;;
69310;SDS011;56430;48.154;16.458;2022-07-09T12:14:09;2.70;;;1.10;;
69310;SDS011;56430;48.154;16.458;2022-07-09T12:16:37;2.83;;;1.27;;
69310;SDS011;56430;48.154;16.458;2022-07-09T12:19:06;4.43;;;1.10;;
69310;SDS011;56430;48.154;16.458;2022-07-09T12:21:32;3.65;;;1.20;;
69310;SDS011;56430;48.154;16.458;2022-07-09T12:23:59;2.47;;;1.30;;
69310;SDS011;56430;48.154;16.458;2022-07-09T12:26:26;3.28;;;1.45;;
69310;SDS011;56430;48.154;16.458;2022-07-09T12:28:53;3.15;;;1.10;;
69310;SDS011;56430;48.154;16.458;2022-07-09T12:31:20;3.15;;;1.00;;
69310;SDS011;56430;48.154;16.458;2022-07-09T12:33:47;2.67;;;1.10;;
69310;SDS011;56430;48.154;16.458;2022-07-09T12:36:15;4.93;;;1.45;;
69310;SDS011;56430;48.154;16.458;2022-07-09T12:38:42;5.63;;;1.20;;
69310;SDS011;56430;48.154;16.458;2022-07-09T12:41:09;5.43;;;1.40;;
69310;SDS011;56430;48.154;16.458;2022-07-09T12:43:36;5.97;;;1.10;;
69310;SDS011;56430;48.154;16.458;2022-07-09T12:46:02;2.83;;;1.40;;
69310;SDS011;56430;48.154;16.458;2022-07-09T12:48:29;3.40;;;1.00;;
69310;SDS011;56430;48.154;16.458;2022-07-09T12:50:56;2.55;;;1.10;;
69310;SDS011;56430;48.154;16.458;2022-07-09T12:53:24;4.93;;;1.25;;
69310;SDS011;56430;48.154;16.458;2022-07-09T12:55:51;3.35;;;1.50;;
69310;SDS011;56430;48.154;16.458;2022-07-09T12:58:18;3.38;;;1.08;;
69310;SDS011;56430;48.154;16.458;2022-07-09T13:00:45;2.50;;;1.20;;
69310;SDS011;56430;48.154;16.458;2022-07-09T13:03:12;2.42;;;1.13;;
69310;SDS011;56430;48.154;16.458;2022-07-09T13:05:39;2.47;;;1.13;;
69310;SDS011;56430;48.154;16.458;2022-07-09T13:08:06;6.00;;;1.23;;
69310;SDS011;56430;48.154;16.458;2022-07-09T13:10:34;2.55;;;1.30;;
69310;SDS011;56430;48.154;16.458;2022-07-09T13:13:01;2.67;;;1.17;;
69310;SDS011;56430;48.154;16.458;2022-07-09T13:15:28;2.70;;;1.17;;
69310;SDS011;56430;48.154;16.458;2022-07-09T13:17:54;3.55;;;1.20;;
69310;SDS011;56430;48.154;16.458;2022-07-09T13:20:21;2.65;;;1.45;;
69310;SDS011;56430;48.154;16.458;2022-07-09T13:22:48;2.75;;;1.13;;
69310;SDS011;56430;48.154;16.458;2022-07-09T13:25:15;3.85;;;1.40;;
69310;SDS011;56430;48.154;16.458;2022-07-09T13:27:43;2.28;;;1.00;;
69310;SDS011;56430;48.154;16.458;2022-07-09T13:30:10;2.60;;;1.20;;
69310;SDS011;56430;48.154;16.458;2022-07-09T13:32:37;4.20;;;1.00;;
69310;SDS011;56430;48.154;16.458;2022-07-09T13:35:05;3.58;;;0.98;;
69310;SDS011;56430;48.154;16.458;2022-07-09T13:37:31;3.50;;;1.00;;
69310;SDS011;56430;48.154;16.458;2022-07-09T13:39:58;3.10;;;1.20;;
69310;SDS011;56430;48.154;16.458;2022-07-09T13:42:25;3.55;;;0.90;;
69310;SDS011;56430;48.154;16.458;2022-07-09T13:44:54;2.60;;;1.08;;
69310;SDS011;56430;48.154;16.458;2022-07-09T13:47:20;3.47;;;1.13;;
69310;SDS011;56430;48.154;16.458;2022-07-09T13:49:47;3.13;;;1.00;;
69310;SDS011;56430;48.154;16.458;2022-07-09T13:52:14;3.00;;;0.95;;
69310;SDS011;56430;48.154;16.458;2022-07-09T13:54:41;3.60;;;1.20;;
69310;SDS011;56430;48.154;16.458;2022-07-09T13:57:08;2.10;;;1.07;;
69310;SDS011;56430;48.154;16.458;2022-07-09T13:59:35;3.45;;;1.27;;
69310;SDS011;56430;48.154;16.458;2022-07-09T14:02:03;2.15;;;1.00;;
69310;SDS011;56430;48.154;16.458;2022-07-09T14:04:30;2.15;;;1.10;;
69310;SDS011;56430;48.154;16.458;2022-07-09T14:06:57;2.45;;;1.00;;
69310;SDS011;56430;48.154;16.458;2022-07-09T14:09:23;4.97;;;0.98;;
69310;SDS011;56430;48.154;16.458;2022-07-09T14:11:50;2.55;;;1.02;;
69310;SDS011;56430;48.154;16.458;2022-07-09T14:14:17;2.90;;;1.05;;
69310;SDS011;56430;48.154;16.458;2022-07-09T14:16:44;2.60;;;1.10;;
69310;SDS011;56430;48.154;16.458;2022-07-09T14:19:12;2.43;;;0.90;;
69310;SDS011;56430;48.154;16.458;2022-07-09T14:21:39;3.87;;;1.00;;
69310;SDS011;56430;48.154;16.458;2022-07-09T14:24:06;4.18;;;1.30;;
69310;SDS011;56430;48.154;16.458;2022-07-09T14:26:33;3.90;;;1.23;;
69310;SDS011;56430;48.154;16.458;2022-07-09T14:29:00;1.98;;;0.93;;
69310;SDS011;56430;48.154;16.458;2022-07-09T14:31:27;2.53;;;1.08;;
69310;SDS011;56430;48.154;16.458;2022-07-09T14:33:54;2.97;;;1.00;;
69310;SDS011;56430;48.154;16.458;2022-07-09T14:36:22;3.70;;;0.90;;
69310;SDS011;56430;48.154;16.458;2022-07-09T14:38:49;3.47;;;0.98;;